Airfield :
LOGIN :

Register | Disclaimer

   EN    FR    IT 

 










Legend :    VFR   Marginal VFR   IFR   Intensive IFR   Very Intensive IFR
Visi :
Ceiling :
>= 8 km
>= 3000ft
5 to 8 km
1000 to 3000 ft
1500m to 5 km
500 to 1000 ft
800 to 1500m
200 to 500 ft
< 800m
< 200 ft
Symbols :   Thunderstorms  Fog  Heavy snow  Heavy precipitations  Wind > 20 kt
SIGMETs :     Misc.  Thunderstorms  Icing  Turbulence  Mountain Waves  Volcanic Ashes







- Airport Elevation : 466 ft


LHPA - Pápa

CURRENT METAR :
  • 220215Z 30006KT 9999 BKN037 BKN083 08/04 Q1023 RESHRA TEMPO -SHRA RMK BLU

EXPIRED METARs :
  • 220213Z 30006KT 9999 BKN037 BKN083 08/03 Q1023 RESHRA RMK BLU
  • 220145Z 27006KT 240V300 9999 SCT043 BKN083 08/03 Q1023 TEMPO -SHRA RMK BLU
  • 220115Z 30008KT 9999 SCT047 BKN083 08/03 Q1023 TEMPO -SHRA RMK BLU
  • 220045Z 31008KT 9999 SCT047 BKN083 08/03 Q1023 NOSIG RMK BLU
  • 220015Z 31008KT 9999 SCT047 BKN083 08/04 Q1024 NOSIG RMK BLU
  • 212345Z 30008KT 9999 SCT047 BKN083 08/04 Q1024 NOSIG RMK BLU
  • 212315Z 25002KT 9999 SCT047 BKN083 07/04 Q1024 NOSIG RMK BLU

TAF TAF LHPA
Valid from the 22 at 00:00 until the 23 at 00:00 UTC


212315Z 2200/2224 26006KT 9999 SCT040 BKN080
BECMG 2200/2203 32010KT
TEMPO 2203/2207 5000 -RA -SHRA BKN010 OVC030
BECMG 2207/2209 34014G24KT
TEMPO 2209/2218 35018G30KT 9999 SCT020 BKN040
PROB30
TEMPO 2212/2218 35020G36KT
BECMG 2221/2224 02014KT
No reported NOTAMs for that airfield.



MET'MAP, your aeronautical weather chart ! - Copyright ORBIFLY December 2007 - Disclaimer

ORBIFLY MET'MAP TEAM :

Programming & Development : Alexandra Zaïnal
Concept & Development : Baudouin d'Aumeries
Co-Development & Prog : Marc-Olivier Méhu
Technical & hardware support : Manuel Goepfert

Contact : metmap@orbifly.com




SOURCES & CREDITS :

   NOAA